sensor_id;sensor_type;location;lat;lon;timestamp;temperature;humidity
37998;DHT22;24079;51.824;4.682;2023-07-30T00:00:12;17.60;99.90
37998;DHT22;24079;51.824;4.682;2023-07-30T00:02:38;17.50;99.90
37998;DHT22;24079;51.824;4.682;2023-07-30T00:05:04;17.60;99.90
37998;DHT22;24079;51.824;4.682;2023-07-30T00:07:29;17.50;99.90
37998;DHT22;24079;51.824;4.682;2023-07-30T00:09:55;17.40;99.90
37998;DHT22;24079;51.824;4.682;2023-07-30T00:12:21;17.40;99.90
37998;DHT22;24079;51.824;4.682;2023-07-30T00:14:46;17.30;99.90
37998;DHT22;24079;51.824;4.682;2023-07-30T00:17:12;17.30;99.90
37998;DHT22;24079;51.824;4.682;2023-07-30T00:19:37;17.30;99.90
37998;DHT22;24079;51.824;4.682;2023-07-30T00:22:03;17.30;99.90
37998;DHT22;24079;51.824;4.682;2023-07-30T00:24:29;17.20;99.90
37998;DHT22;24079;51.824;4.682;2023-07-30T00:26:54;17.20;99.90
37998;DHT22;24079;51.824;4.682;2023-07-30T00:29:20;17.20;99.90
37998;DHT22;24079;51.824;4.682;2023-07-30T00:31:46;17.20;99.90
37998;DHT22;24079;51.824;4.682;2023-07-30T00:34:11;17.20;99.90
37998;DHT22;24079;51.824;4.682;2023-07-30T00:36:37;17.30;99.90
37998;DHT22;24079;51.824;4.682;2023-07-30T00:39:03;17.30;99.90
37998;DHT22;24079;51.824;4.682;2023-07-30T00:41:28;17.20;99.90
37998;DHT22;24079;51.824;4.682;2023-07-30T00:43:54;17.20;99.90
37998;DHT22;24079;51.824;4.682;2023-07-30T00:46:20;17.10;99.90
37998;DHT22;24079;51.824;4.682;2023-07-30T00:48:45;17.20;99.90
37998;DHT22;24079;51.824;4.682;2023-07-30T00:51:13;17.10;99.90
37998;DHT22;24079;51.824;4.682;2023-07-30T00:53:40;17.20;99.90
37998;DHT22;24079;51.824;4.682;2023-07-30T00:56:06;17.20;99.90
37998;DHT22;24079;51.824;4.682;2023-07-30T00:58:32;17.20;99.90
37998;DHT22;24079;51.824;4.682;2023-07-30T01:00:58;17.20;99.90
37998;DHT22;24079;51.824;4.682;2023-07-30T01:03:24;17.20;99.90
37998;DHT22;24079;51.824;4.682;2023-07-30T01:05:51;17.20;99.90
37998;DHT22;24079;51.824;4.682;2023-07-30T01:08:16;17.20;99.90
37998;DHT22;24079;51.824;4.682;2023-07-30T01:10:42;17.20;99.90
37998;DHT22;24079;51.824;4.682;2023-07-30T01:13:09;17.20;99.90
37998;DHT22;24079;51.824;4.682;2023-07-30T01:15:36;17.20;99.90
37998;DHT22;24079;51.824;4.682;2023-07-30T01:18:02;17.30;99.90
37998;DHT22;24079;51.824;4.682;2023-07-30T01:20:31;17.20;99.90
37998;DHT22;24079;51.824;4.682;2023-07-30T01:22:58;17.20;99.90
37998;DHT22;24079;51.824;4.682;2023-07-30T01:25:27;17.20;99.90
37998;DHT22;24079;51.824;4.682;2023-07-30T01:27:55;17.30;99.90
37998;DHT22;24079;51.824;4.682;2023-07-30T01:30:30;17.30;99.90
37998;DHT22;24079;51.824;4.682;2023-07-30T01:32:56;17.30;99.90
37998;DHT22;24079;51.824;4.682;2023-07-30T01:35:26;17.30;99.90
37998;DHT22;24079;51.824;4.682;2023-07-30T01:37:52;17.30;99.90
37998;DHT22;24079;51.824;4.682;2023-07-30T01:40:19;17.30;99.90
37998;DHT22;24079;51.824;4.682;2023-07-30T01:42:45;17.30;99.90
37998;DHT22;24079;51.824;4.682;2023-07-30T01:45:11;17.20;99.90
37998;DHT22;24079;51.824;4.682;2023-07-30T01:47:37;17.20;99.90
37998;DHT22;24079;51.824;4.682;2023-07-30T01:50:03;17.20;99.90
37998;DHT22;24079;51.824;4.682;2023-07-30T01:52:29;17.30;99.90
37998;DHT22;24079;51.824;4.682;2023-07-30T01:54:54;17.30;99.90
37998;DHT22;24079;51.824;4.682;2023-07-30T01:57:22;17.20;99.90
37998;DHT22;24079;51.824;4.682;2023-07-30T01:59:48;17.20;99.90
37998;DHT22;24079;51.824;4.682;2023-07-30T02:02:14;17.20;99.90
37998;DHT22;24079;51.824;4.682;2023-07-30T02:04:40;17.20;99.90
37998;DHT22;24079;51.824;4.682;2023-07-30T02:07:06;17.20;99.90
37998;DHT22;24079;51.824;4.682;2023-07-30T02:09:32;17.20;99.90
37998;DHT22;24079;51.824;4.682;2023-07-30T02:11:57;17.10;99.90
37998;DHT22;24079;51.824;4.682;2023-07-30T02:14:23;17.20;99.90
37998;DHT22;24079;51.824;4.682;2023-07-30T02:16:49;17.10;99.90
37998;DHT22;24079;51.824;4.682;2023-07-30T02:19:14;17.10;99.90
37998;DHT22;24079;51.824;4.682;2023-07-30T02:21:40;17.10;99.90
37998;DHT22;24079;51.824;4.682;2023-07-30T02:24:08;17.00;99.90
37998;DHT22;24079;51.824;4.682;2023-07-30T02:26:36;17.10;99.90
37998;DHT22;24079;51.824;4.682;2023-07-30T02:29:02;17.10;99.90
37998;DHT22;24079;51.824;4.682;2023-07-30T02:31:27;17.20;99.90
37998;DHT22;24079;51.824;4.682;2023-07-30T02:33:53;17.20;99.90
37998;DHT22;24079;51.824;4.682;2023-07-30T02:36:19;17.20;99.90
37998;DHT22;24079;51.824;4.682;2023-07-30T02:38:44;17.20;99.90
37998;DHT22;24079;51.824;4.682;2023-07-30T02:41:10;17.20;99.90
37998;DHT22;24079;51.824;4.682;2023-07-30T02:43:35;17.00;99.90
37998;DHT22;24079;51.824;4.682;2023-07-30T02:46:01;17.00;99.90
37998;DHT22;24079;51.824;4.682;2023-07-30T02:48:27;17.00;99.90
37998;DHT22;24079;51.824;4.682;2023-07-30T02:50:52;17.00;99.90
37998;DHT22;24079;51.824;4.682;2023-07-30T02:53:18;17.00;99.90
37998;DHT22;24079;51.824;4.682;2023-07-30T02:55:43;17.10;99.90
37998;DHT22;24079;51.824;4.682;2023-07-30T02:58:09;17.00;99.90
37998;DHT22;24079;51.824;4.682;2023-07-30T03:00:35;17.00;99.90
37998;DHT22;24079;51.824;4.682;2023-07-30T03:03:01;17.00;99.90
37998;DHT22;24079;51.824;4.682;2023-07-30T03:05:27;17.00;99.90
37998;DHT22;24079;51.824;4.682;2023-07-30T03:07:53;17.10;99.90
37998;DHT22;24079;51.824;4.682;2023-07-30T03:10:19;17.10;99.90
37998;DHT22;24079;51.824;4.682;2023-07-30T03:12:46;17.10;99.90
37998;DHT22;24079;51.824;4.682;2023-07-30T03:15:12;17.00;99.90
37998;DHT22;24079;51.824;4.682;2023-07-30T03:17:38;17.00;99.90
37998;DHT22;24079;51.824;4.682;2023-07-30T03:20:04;17.00;99.90
37998;DHT22;24079;51.824;4.682;2023-07-30T03:22:31;17.00;99.90
37998;DHT22;24079;51.824;4.682;2023-07-30T03:24:57;17.00;99.90
37998;DHT22;24079;51.824;4.682;2023-07-30T03:27:23;17.10;99.90
37998;DHT22;24079;51.824;4.682;2023-07-30T03:29:49;17.00;99.90
37998;DHT22;24079;51.824;4.682;2023-07-30T03:32:15;17.00;99.90
37998;DHT22;24079;51.824;4.682;2023-07-30T03:34:41;17.00;99.90
37998;DHT22;24079;51.824;4.682;2023-07-30T03:37:07;17.00;99.90
37998;DHT22;24079;51.824;4.682;2023-07-30T03:39:33;17.00;99.90
37998;DHT22;24079;51.824;4.682;2023-07-30T03:41:59;16.90;99.90
37998;DHT22;24079;51.824;4.682;2023-07-30T03:44:25;17.00;99.90
37998;DHT22;24079;51.824;4.682;2023-07-30T03:46:51;17.00;99.90
37998;DHT22;24079;51.824;4.682;2023-07-30T03:49:17;17.00;99.90
37998;DHT22;24079;51.824;4.682;2023-07-30T03:51:43;17.00;99.90
37998;DHT22;24079;51.824;4.682;2023-07-30T03:54:10;16.90;99.90
37998;DHT22;24079;51.824;4.682;2023-07-30T03:56:36;16.90;99.90
37998;DHT22;24079;51.824;4.682;2023-07-30T03:59:02;16.90;99.90
37998;DHT22;24079;51.824;4.682;2023-07-30T04:01:28;17.00;99.90
37998;DHT22;24079;51.824;4.682;2023-07-30T04:03:56;16.90;99.90
37998;DHT22;24079;51.824;4.682;2023-07-30T04:06:22;16.90;99.90
37998;DHT22;24079;51.824;4.682;2023-07-30T04:08:48;16.90;99.90
37998;DHT22;24079;51.824;4.682;2023-07-30T04:11:14;16.90;99.90
37998;DHT22;24079;51.824;4.682;2023-07-30T04:13:39;17.00;99.90
37998;DHT22;24079;51.824;4.682;2023-07-30T04:16:06;17.00;99.90
37998;DHT22;24079;51.824;4.682;2023-07-30T04:18:31;17.00;99.90
37998;DHT22;24079;51.824;4.682;2023-07-30T04:20:57;17.00;99.90
37998;DHT22;24079;51.824;4.682;2023-07-30T04:23:23;16.90;99.90
37998;DHT22;24079;51.824;4.682;2023-07-30T04:25:49;16.90;99.90
37998;DHT22;24079;51.824;4.682;2023-07-30T04:28:15;17.00;99.90
37998;DHT22;24079;51.824;4.682;2023-07-30T04:30:41;17.00;99.90
37998;DHT22;24079;51.824;4.682;2023-07-30T04:33:07;17.00;99.90
37998;DHT22;24079;51.824;4.682;2023-07-30T04:35:32;17.00;99.90
37998;DHT22;24079;51.824;4.682;2023-07-30T04:37:58;17.00;99.90
37998;DHT22;24079;51.824;4.682;2023-07-30T04:40:24;17.00;99.90
37998;DHT22;24079;51.824;4.682;2023-07-30T04:42:50;17.00;99.90
37998;DHT22;24079;51.824;4.682;2023-07-30T04:45:16;17.00;99.90
37998;DHT22;24079;51.824;4.682;2023-07-30T04:47:42;17.00;99.90
37998;DHT22;24079;51.824;4.682;2023-07-30T04:50:08;16.90;99.90
37998;DHT22;24079;51.824;4.682;2023-07-30T04:52:34;17.00;99.90
37998;DHT22;24079;51.824;4.682;2023-07-30T04:55:00;16.90;99.90
37998;DHT22;24079;51.824;4.682;2023-07-30T04:57:25;16.90;99.90
37998;DHT22;24079;51.824;4.682;2023-07-30T04:59:52;16.90;99.90
37998;DHT22;24079;51.824;4.682;2023-07-30T05:02:17;16.90;99.90
37998;DHT22;24079;51.824;4.682;2023-07-30T05:04:43;16.90;99.90
37998;DHT22;24079;51.824;4.682;2023-07-30T05:07:09;17.00;99.90
37998;DHT22;24079;51.824;4.682;2023-07-30T05:09:34;17.00;99.90
37998;DHT22;24079;51.824;4.682;2023-07-30T05:12:00;17.00;99.90
37998;DHT22;24079;51.824;4.682;2023-07-30T05:14:25;17.00;99.90
37998;DHT22;24079;51.824;4.682;2023-07-30T05:16:51;17.00;99.90
37998;DHT22;24079;51.824;4.682;2023-07-30T05:19:17;17.10;99.90
37998;DHT22;24079;51.824;4.682;2023-07-30T05:21:42;17.00;99.90
37998;DHT22;24079;51.824;4.682;2023-07-30T05:24:08;17.10;99.90
37998;DHT22;24079;51.824;4.682;2023-07-30T05:26:34;17.10;99.90
37998;DHT22;24079;51.824;4.682;2023-07-30T05:29:00;17.20;99.90
37998;DHT22;24079;51.824;4.682;2023-07-30T05:31:25;17.20;99.90
37998;DHT22;24079;51.824;4.682;2023-07-30T05:33:51;17.30;99.90
37998;DHT22;24079;51.824;4.682;2023-07-30T05:36:17;17.40;99.90
37998;DHT22;24079;51.824;4.682;2023-07-30T05:38:43;17.30;99.90
37998;DHT22;24079;51.824;4.682;2023-07-30T05:41:08;17.40;99.90
37998;DHT22;24079;51.824;4.682;2023-07-30T05:43:34;17.30;99.90
37998;DHT22;24079;51.824;4.682;2023-07-30T05:45:59;17.40;99.90
37998;DHT22;24079;51.824;4.682;2023-07-30T05:48:25;17.40;99.90
37998;DHT22;24079;51.824;4.682;2023-07-30T05:50:51;17.40;99.90
37998;DHT22;24079;51.824;4.682;2023-07-30T05:53:16;17.40;99.90
37998;DHT22;24079;51.824;4.682;2023-07-30T05:55:42;17.40;99.90
37998;DHT22;24079;51.824;4.682;2023-07-30T05:58:07;17.40;99.90
37998;DHT22;24079;51.824;4.682;2023-07-30T06:00:33;17.50;99.90
37998;DHT22;24079;51.824;4.682;2023-07-30T06:02:59;17.40;99.90
37998;DHT22;24079;51.824;4.682;2023-07-30T06:05:24;17.40;99.90
37998;DHT22;24079;51.824;4.682;2023-07-30T06:07:50;17.50;99.90
37998;DHT22;24079;51.824;4.682;2023-07-30T06:10:15;17.50;99.90
37998;DHT22;24079;51.824;4.682;2023-07-30T06:12:41;17.50;99.90
37998;DHT22;24079;51.824;4.682;2023-07-30T06:15:09;17.60;99.90
37998;DHT22;24079;51.824;4.682;2023-07-30T06:17:35;17.70;99.90
37998;DHT22;24079;51.824;4.682;2023-07-30T06:20:01;17.70;99.90
37998;DHT22;24079;51.824;4.682;2023-07-30T06:22:28;17.70;99.90
37998;DHT22;24079;51.824;4.682;2023-07-30T06:24:54;17.80;99.90
37998;DHT22;24079;51.824;4.682;2023-07-30T06:27:20;17.80;99.90
37998;DHT22;24079;51.824;4.682;2023-07-30T06:29:46;17.80;99.90
37998;DHT22;24079;51.824;4.682;2023-07-30T06:32:13;17.80;99.90
37998;DHT22;24079;51.824;4.682;2023-07-30T06:34:39;17.80;99.90
37998;DHT22;24079;51.824;4.682;2023-07-30T06:37:04;17.70;99.90
37998;DHT22;24079;51.824;4.682;2023-07-30T06:39:30;17.70;99.90
37998;DHT22;24079;51.824;4.682;2023-07-30T06:41:56;17.70;99.90
37998;DHT22;24079;51.824;4.682;2023-07-30T06:44:21;17.70;99.90
37998;DHT22;24079;51.824;4.682;2023-07-30T06:46:49;17.70;99.90
37998;DHT22;24079;51.824;4.682;2023-07-30T06:49:15;17.70;99.90
37998;DHT22;24079;51.824;4.682;2023-07-30T06:51:41;17.70;99.90
37998;DHT22;24079;51.824;4.682;2023-07-30T06:54:06;17.70;99.90
37998;DHT22;24079;51.824;4.682;2023-07-30T06:56:32;17.80;99.90
37998;DHT22;24079;51.824;4.682;2023-07-30T06:58:58;17.80;99.90
37998;DHT22;24079;51.824;4.682;2023-07-30T07:01:23;17.70;99.90
37998;DHT22;24079;51.824;4.682;2023-07-30T07:03:49;17.80;99.90
37998;DHT22;24079;51.824;4.682;2023-07-30T07:06:14;17.90;99.90
37998;DHT22;24079;51.824;4.682;2023-07-30T07:08:40;18.00;99.90
37998;DHT22;24079;51.824;4.682;2023-07-30T07:11:06;18.00;99.90
37998;DHT22;24079;51.824;4.682;2023-07-30T07:13:32;18.00;99.90
37998;DHT22;24079;51.824;4.682;2023-07-30T07:15:57;18.00;99.90
37998;DHT22;24079;51.824;4.682;2023-07-30T07:18:23;18.10;99.90
37998;DHT22;24079;51.824;4.682;2023-07-30T07:20:49;18.20;99.90
37998;DHT22;24079;51.824;4.682;2023-07-30T07:23:14;18.40;99.90
37998;DHT22;24079;51.824;4.682;2023-07-30T07:25:40;18.50;99.90
37998;DHT22;24079;51.824;4.682;2023-07-30T07:28:05;18.70;99.90
37998;DHT22;24079;51.824;4.682;2023-07-30T07:30:35;19.10;99.90
37998;DHT22;24079;51.824;4.682;2023-07-30T07:33:01;19.30;99.90
37998;DHT22;24079;51.824;4.682;2023-07-30T07:35:27;19.50;99.90
37998;DHT22;24079;51.824;4.682;2023-07-30T07:37:53;19.80;99.90
37998;DHT22;24079;51.824;4.682;2023-07-30T07:40:18;19.50;99.90
37998;DHT22;24079;51.824;4.682;2023-07-30T07:42:44;19.30;99.90
37998;DHT22;24079;51.824;4.682;2023-07-30T07:45:10;19.10;99.90
37998;DHT22;24079;51.824;4.682;2023-07-30T07:47:35;18.90;99.90
37998;DHT22;24079;51.824;4.682;2023-07-30T07:50:01;18.80;99.90
37998;DHT22;24079;51.824;4.682;2023-07-30T07:52:27;18.80;99.90
37998;DHT22;24079;51.824;4.682;2023-07-30T07:54:52;18.80;99.90
37998;DHT22;24079;51.824;4.682;2023-07-30T07:57:21;18.70;99.90
37998;DHT22;24079;51.824;4.682;2023-07-30T07:59:47;18.60;99.90
37998;DHT22;24079;51.824;4.682;2023-07-30T08:02:13;18.60;99.90
37998;DHT22;24079;51.824;4.682;2023-07-30T08:04:40;18.60;99.90
37998;DHT22;24079;51.824;4.682;2023-07-30T08:07:05;18.60;99.90
37998;DHT22;24079;51.824;4.682;2023-07-30T08:09:32;18.60;99.90
37998;DHT22;24079;51.824;4.682;2023-07-30T08:11:59;18.60;99.90
37998;DHT22;24079;51.824;4.682;2023-07-30T08:14:25;18.60;99.90
37998;DHT22;24079;51.824;4.682;2023-07-30T08:16:51;18.60;99.90
37998;DHT22;24079;51.824;4.682;2023-07-30T08:19:17;18.50;99.90
37998;DHT22;24079;51.824;4.682;2023-07-30T08:21:43;18.60;99.90
37998;DHT22;24079;51.824;4.682;2023-07-30T08:24:10;18.50;99.90
37998;DHT22;24079;51.824;4.682;2023-07-30T08:26:36;18.50;99.90
37998;DHT22;24079;51.824;4.682;2023-07-30T08:29:02;18.60;99.90
37998;DHT22;24079;51.824;4.682;2023-07-30T08:31:29;18.70;99.90
37998;DHT22;24079;51.824;4.682;2023-07-30T08:33:55;18.80;99.90
37998;DHT22;24079;51.824;4.682;2023-07-30T08:36:21;18.80;99.90
37998;DHT22;24079;51.824;4.682;2023-07-30T08:38:46;18.90;99.90
37998;DHT22;24079;51.824;4.682;2023-07-30T08:41:12;19.00;99.90
37998;DHT22;24079;51.824;4.682;2023-07-30T08:43:38;19.20;99.90
37998;DHT22;24079;51.824;4.682;2023-07-30T08:46:03;19.50;99.90
37998;DHT22;24079;51.824;4.682;2023-07-30T08:48:30;19.40;99.90
37998;DHT22;24079;51.824;4.682;2023-07-30T08:50:57;19.30;99.90
37998;DHT22;24079;51.824;4.682;2023-07-30T08:53:26;19.30;99.90
37998;DHT22;24079;51.824;4.682;2023-07-30T08:55:55;19.80;99.90
37998;DHT22;24079;51.824;4.682;2023-07-30T08:58:23;20.20;99.90
37998;DHT22;24079;51.824;4.682;2023-07-30T09:00:55;20.20;99.90
37998;DHT22;24079;51.824;4.682;2023-07-30T09:03:22;20.30;99.90
37998;DHT22;24079;51.824;4.682;2023-07-30T09:05:48;20.10;99.90
37998;DHT22;24079;51.824;4.682;2023-07-30T09:08:14;20.00;99.90
37998;DHT22;24079;51.824;4.682;2023-07-30T09:10:40;19.90;99.90
37998;DHT22;24079;51.824;4.682;2023-07-30T09:13:07;19.90;99.90
37998;DHT22;24079;51.824;4.682;2023-07-30T09:15:34;19.90;99.90
37998;DHT22;24079;51.824;4.682;2023-07-30T09:18:03;20.40;99.90
37998;DHT22;24079;51.824;4.682;2023-07-30T09:20:40;20.50;99.90
37998;DHT22;24079;51.824;4.682;2023-07-30T09:23:08;20.40;99.90
37998;DHT22;24079;51.824;4.682;2023-07-30T09:25:35;20.50;99.90
37998;DHT22;24079;51.824;4.682;2023-07-30T09:28:01;20.60;99.90
37998;DHT22;24079;51.824;4.682;2023-07-30T09:30:28;20.60;99.90
37998;DHT22;24079;51.824;4.682;2023-07-30T09:32:56;20.60;99.90
37998;DHT22;24079;51.824;4.682;2023-07-30T09:35:24;20.60;99.90
37998;DHT22;24079;51.824;4.682;2023-07-30T09:37:57;20.50;99.90
37998;DHT22;24079;51.824;4.682;2023-07-30T09:40:31;20.20;99.90
37998;DHT22;24079;51.824;4.682;2023-07-30T09:42:58;20.00;99.90
37998;DHT22;24079;51.824;4.682;2023-07-30T09:45:25;19.80;99.90
37998;DHT22;24079;51.824;4.682;2023-07-30T09:47:53;19.50;99.90
37998;DHT22;24079;51.824;4.682;2023-07-30T09:50:20;19.50;99.90
37998;DHT22;24079;51.824;4.682;2023-07-30T09:52:46;19.50;99.90
37998;DHT22;24079;51.824;4.682;2023-07-30T09:55:12;19.40;99.90
37998;DHT22;24079;51.824;4.682;2023-07-30T09:57:39;19.80;99.90
37998;DHT22;24079;51.824;4.682;2023-07-30T10:00:06;20.30;99.90
37998;DHT22;24079;51.824;4.682;2023-07-30T10:02:39;21.10;99.90
37998;DHT22;24079;51.824;4.682;2023-07-30T10:05:11;21.60;99.90
37998;DHT22;24079;51.824;4.682;2023-07-30T10:07:42;21.50;99.90
37998;DHT22;24079;51.824;4.682;2023-07-30T10:10:10;21.00;99.90
37998;DHT22;24079;51.824;4.682;2023-07-30T10:12:37;21.10;99.90
37998;DHT22;24079;51.824;4.682;2023-07-30T10:15:06;21.40;99.90
37998;DHT22;24079;51.824;4.682;2023-07-30T10:17:32;21.40;99.90
37998;DHT22;24079;51.824;4.682;2023-07-30T10:20:21;21.20;99.90
37998;DHT22;24079;51.824;4.682;2023-07-30T10:22:52;20.80;99.90
37998;DHT22;24079;51.824;4.682;2023-07-30T10:25:20;20.50;99.90
37998;DHT22;24079;51.824;4.682;2023-07-30T10:27:50;20.10;99.90
37998;DHT22;24079;51.824;4.682;2023-07-30T10:30:17;20.00;99.90
37998;DHT22;24079;51.824;4.682;2023-07-30T10:35:38;20.90;99.90
37998;DHT22;24079;51.824;4.682;2023-07-30T10:41:09;21.40;99.90
37998;DHT22;24079;51.824;4.682;2023-07-30T10:43:38;21.30;99.90
37998;DHT22;24079;51.824;4.682;2023-07-30T10:46:05;21.90;99.90
37998;DHT22;24079;51.824;4.682;2023-07-30T10:48:36;22.00;99.90
37998;DHT22;24079;51.824;4.682;2023-07-30T10:51:05;22.10;99.90
37998;DHT22;24079;51.824;4.682;2023-07-30T10:53:32;22.20;99.90
37998;DHT22;24079;51.824;4.682;2023-07-30T10:56:00;22.20;99.90
37998;DHT22;24079;51.824;4.682;2023-07-30T10:58:34;22.70;99.90
37998;DHT22;24079;51.824;4.682;2023-07-30T11:01:07;23.20;99.90
37998;DHT22;24079;51.824;4.682;2023-07-30T11:03:34;22.70;99.90
37998;DHT22;24079;51.824;4.682;2023-07-30T11:06:01;22.20;99.90
37998;DHT22;24079;51.824;4.682;2023-07-30T11:08:37;21.70;99.90
37998;DHT22;24079;51.824;4.682;2023-07-30T11:11:05;21.30;99.90
37998;DHT22;24079;51.824;4.682;2023-07-30T11:13:45;21.10;99.90
37998;DHT22;24079;51.824;4.682;2023-07-30T11:16:15;21.00;99.90
37998;DHT22;24079;51.824;4.682;2023-07-30T11:18:43;21.00;99.90
37998;DHT22;24079;51.824;4.682;2023-07-30T11:21:11;21.20;99.90
37998;DHT22;24079;51.824;4.682;2023-07-30T11:23:39;21.40;99.90
37998;DHT22;24079;51.824;4.682;2023-07-30T11:26:07;21.40;99.90
37998;DHT22;24079;51.824;4.682;2023-07-30T11:28:38;21.30;99.90
37998;DHT22;24079;51.824;4.682;2023-07-30T11:31:07;21.50;99.90
37998;DHT22;24079;51.824;4.682;2023-07-30T11:33:39;21.80;99.90
37998;DHT22;24079;51.824;4.682;2023-07-30T11:36:10;21.90;99.90
37998;DHT22;24079;51.824;4.682;2023-07-30T11:38:37;21.70;99.90
37998;DHT22;24079;51.824;4.682;2023-07-30T11:41:04;21.40;99.90
37998;DHT22;24079;51.824;4.682;2023-07-30T11:43:31;21.40;99.90
37998;DHT22;24079;51.824;4.682;2023-07-30T11:48:34;22.10;99.90
37998;DHT22;24079;51.824;4.682;2023-07-30T11:51:01;22.10;99.90
37998;DHT22;24079;51.824;4.682;2023-07-30T11:53:45;22.30;99.90
37998;DHT22;24079;51.824;4.682;2023-07-30T11:56:26;22.20;99.90
37998;DHT22;24079;51.824;4.682;2023-07-30T11:59:06;21.90;99.90
37998;DHT22;24079;51.824;4.682;2023-07-30T12:01:33;21.90;99.90
37998;DHT22;24079;51.824;4.682;2023-07-30T12:04:02;22.20;99.90
37998;DHT22;24079;51.824;4.682;2023-07-30T12:11:47;22.40;99.90
37998;DHT22;24079;51.824;4.682;2023-07-30T12:14:15;22.40;99.90
37998;DHT22;24079;51.824;4.682;2023-07-30T12:16:41;22.30;99.90
37998;DHT22;24079;51.824;4.682;2023-07-30T12:19:07;22.30;99.90
37998;DHT22;24079;51.824;4.682;2023-07-30T12:21:33;22.60;99.90
37998;DHT22;24079;51.824;4.682;2023-07-30T12:23:59;22.70;99.90
37998;DHT22;24079;51.824;4.682;2023-07-30T12:26:25;22.80;99.90
37998;DHT22;24079;51.824;4.682;2023-07-30T12:28:51;22.20;99.90
37998;DHT22;24079;51.824;4.682;2023-07-30T12:31:17;22.20;99.90
37998;DHT22;24079;51.824;4.682;2023-07-30T12:33:43;22.00;99.90
37998;DHT22;24079;51.824;4.682;2023-07-30T12:36:09;22.20;99.90
37998;DHT22;24079;51.824;4.682;2023-07-30T12:38:34;22.20;99.90
37998;DHT22;24079;51.824;4.682;2023-07-30T12:41:00;22.40;99.90
37998;DHT22;24079;51.824;4.682;2023-07-30T12:43:26;22.20;99.90
37998;DHT22;24079;51.824;4.682;2023-07-30T12:45:51;22.20;99.90
37998;DHT22;24079;51.824;4.682;2023-07-30T12:48:17;22.60;99.90
37998;DHT22;24079;51.824;4.682;2023-07-30T12:50:43;22.60;99.90
37998;DHT22;24079;51.824;4.682;2023-07-30T12:53:08;22.10;99.90
37998;DHT22;24079;51.824;4.682;2023-07-30T12:55:35;22.20;99.90
37998;DHT22;24079;51.824;4.682;2023-07-30T12:58:01;22.60;99.90
37998;DHT22;24079;51.824;4.682;2023-07-30T13:00:27;22.70;99.90
37998;DHT22;24079;51.824;4.682;2023-07-30T13:02:52;22.80;99.90
37998;DHT22;24079;51.824;4.682;2023-07-30T13:05:21;22.80;99.90
37998;DHT22;24079;51.824;4.682;2023-07-30T13:07:47;22.70;99.90
37998;DHT22;24079;51.824;4.682;2023-07-30T13:10:13;22.70;99.90
37998;DHT22;24079;51.824;4.682;2023-07-30T13:12:39;22.30;99.90
37998;DHT22;24079;51.824;4.682;2023-07-30T13:15:06;22.20;99.90
37998;DHT22;24079;51.824;4.682;2023-07-30T13:17:33;22.20;99.90
37998;DHT22;24079;51.824;4.682;2023-07-30T13:19:59;22.30;99.90
37998;DHT22;24079;51.824;4.682;2023-07-30T13:22:25;22.50;99.90
37998;DHT22;24079;51.824;4.682;2023-07-30T13:24:51;22.50;99.90
37998;DHT22;24079;51.824;4.682;2023-07-30T13:27:18;22.40;99.90
37998;DHT22;24079;51.824;4.682;2023-07-30T13:29:44;22.30;99.90
37998;DHT22;24079;51.824;4.682;2023-07-30T13:32:11;22.10;99.90
37998;DHT22;24079;51.824;4.682;2023-07-30T13:34:37;22.00;99.90
37998;DHT22;24079;51.824;4.682;2023-07-30T13:37:02;21.80;99.90
37998;DHT22;24079;51.824;4.682;2023-07-30T13:39:29;22.00;99.90
37998;DHT22;24079;51.824;4.682;2023-07-30T13:41:54;21.90;99.90
37998;DHT22;24079;51.824;4.682;2023-07-30T13:44:20;21.80;99.90
37998;DHT22;24079;51.824;4.682;2023-07-30T13:46:46;21.90;99.90
37998;DHT22;24079;51.824;4.682;2023-07-30T13:49:11;21.90;99.90
37998;DHT22;24079;51.824;4.682;2023-07-30T13:51:37;22.00;99.90
37998;DHT22;24079;51.824;4.682;2023-07-30T13:54:03;22.00;99.90
37998;DHT22;24079;51.824;4.682;2023-07-30T13:56:29;21.90;99.90
37998;DHT22;24079;51.824;4.682;2023-07-30T13:58:55;21.90;99.90
37998;DHT22;24079;51.824;4.682;2023-07-30T14:01:21;21.90;99.90
37998;DHT22;24079;51.824;4.682;2023-07-30T14:03:47;21.90;99.90
37998;DHT22;24079;51.824;4.682;2023-07-30T14:06:12;21.80;99.90
37998;DHT22;24079;51.824;4.682;2023-07-30T14:08:38;22.10;99.90
37998;DHT22;24079;51.824;4.682;2023-07-30T14:11:04;22.10;99.90
37998;DHT22;24079;51.824;4.682;2023-07-30T14:13:30;21.90;99.90
37998;DHT22;24079;51.824;4.682;2023-07-30T14:15:56;21.80;99.90
37998;DHT22;24079;51.824;4.682;2023-07-30T14:18:24;21.80;99.90
37998;DHT22;24079;51.824;4.682;2023-07-30T14:20:50;21.70;99.90
37998;DHT22;24079;51.824;4.682;2023-07-30T14:23:16;21.60;99.90
37998;DHT22;24079;51.824;4.682;2023-07-30T14:25:42;21.60;99.90
37998;DHT22;24079;51.824;4.682;2023-07-30T14:28:08;21.80;99.90
37998;DHT22;24079;51.824;4.682;2023-07-30T14:30:34;21.90;99.90
37998;DHT22;24079;51.824;4.682;2023-07-30T14:33:02;21.80;99.90
37998;DHT22;24079;51.824;4.682;2023-07-30T14:35:28;21.80;99.90
37998;DHT22;24079;51.824;4.682;2023-07-30T14:37:54;21.90;99.90
37998;DHT22;24079;51.824;4.682;2023-07-30T14:40:21;21.70;99.90
37998;DHT22;24079;51.824;4.682;2023-07-30T14:42:47;21.70;99.90
37998;DHT22;24079;51.824;4.682;2023-07-30T14:45:14;21.70;99.90
37998;DHT22;24079;51.824;4.682;2023-07-30T14:47:40;21.70;99.90
37998;DHT22;24079;51.824;4.682;2023-07-30T14:50:06;21.60;99.90
37998;DHT22;24079;51.824;4.682;2023-07-30T14:52:33;21.70;99.90
37998;DHT22;24079;51.824;4.682;2023-07-30T14:54:59;21.60;99.90
37998;DHT22;24079;51.824;4.682;2023-07-30T14:57:25;21.70;99.90
37998;DHT22;24079;51.824;4.682;2023-07-30T14:59:51;21.80;99.90
37998;DHT22;24079;51.824;4.682;2023-07-30T15:02:18;21.80;99.90
37998;DHT22;24079;51.824;4.682;2023-07-30T15:04:44;21.70;99.90
37998;DHT22;24079;51.824;4.682;2023-07-30T15:07:10;21.60;99.90
37998;DHT22;24079;51.824;4.682;2023-07-30T15:09:37;21.60;99.90
37998;DHT22;24079;51.824;4.682;2023-07-30T15:12:03;21.60;99.90
37998;DHT22;24079;51.824;4.682;2023-07-30T15:14:35;21.60;99.90
37998;DHT22;24079;51.824;4.682;2023-07-30T15:17:01;21.60;99.90
37998;DHT22;24079;51.824;4.682;2023-07-30T15:19:27;21.70;99.90
37998;DHT22;24079;51.824;4.682;2023-07-30T15:21:53;21.60;99.90
37998;DHT22;24079;51.824;4.682;2023-07-30T15:24:19;21.60;99.90
37998;DHT22;24079;51.824;4.682;2023-07-30T15:26:45;21.60;99.90
37998;DHT22;24079;51.824;4.682;2023-07-30T15:29:11;21.50;99.90
37998;DHT22;24079;51.824;4.682;2023-07-30T15:31:38;21.40;99.90
37998;DHT22;24079;51.824;4.682;2023-07-30T15:34:04;21.40;99.90
37998;DHT22;24079;51.824;4.682;2023-07-30T15:36:31;21.50;99.90
37998;DHT22;24079;51.824;4.682;2023-07-30T15:38:57;21.50;99.90